Time;durP1;ratioP1;P1;durP2;ratioP2;P2;SDS_P1;SDS_P2;PMS_P1;PMS_P2;Temp;Humidity;BMP_temperature;BMP_pressure;BME280_temperature;BME280_humidity;BME280_pressure;Samples;Min_cycle;Max_cycle;Signal;HPM_P1;HPM_P2
2022/01/26 00:00:20;;;;;;;77.65;38.10;;;4.30;99.90;;;;;;5049854;28;20040;-44
2022/01/26 00:05:51;;;;;;;103.95;47.75;;;4.30;99.90;;;;;;5050910;28;19912;-43
2022/01/26 00:08:22;;;;;;;89.15;41.85;;;4.20;99.90;;;;;;5048763;28;20112;-44
2022/01/26 00:10:48;;;;;;;97.10;45.63;;;4.10;99.90;;;;;;5048595;28;20735;-43
2022/01/26 00:13:13;;;;;;;104.43;48.45;;;4.10;99.90;;;;;;5050156;28;20036;-43
2022/01/26 00:15:39;;;;;;;100.22;47.22;;;4.10;99.90;;;;;;5049775;28;20491;-44
2022/01/26 00:18:04;;;;;;;99.82;47.35;;;4.00;99.90;;;;;;5049740;28;20025;-44
2022/01/26 00:20:41;;;;;;;101.65;48.05;;;3.90;99.90;;;;;;5049481;28;20029;-44
2022/01/26 00:26:07;;;;;;;85.40;40.47;;;3.90;99.90;;;;;;5028502;28;20107;-44
2022/01/26 00:38:54;;;;;;;70.97;33.90;;;4.00;99.90;;;;;;5046880;28;20143;-43
2022/01/26 00:41:33;;;;;;;72.93;34.22;;;4.10;99.90;;;;;;5049994;28;20375;-43
2022/01/26 00:44:00;;;;;;;82.10;38.00;;;4.10;99.90;;;;;;5049884;28;20104;-43
2022/01/26 00:46:26;;;;;;;75.00;36.33;;;4.10;99.90;;;;;;5049613;28;20021;-42
2022/01/26 00:48:52;;;;;;;106.70;49.47;;;4.10;99.90;;;;;;5048652;28;20048;-43
2022/01/26 00:51:21;;;;;;;96.47;44.80;;;4.00;99.90;;;;;;5049595;28;20037;-43
2022/01/26 00:53:53;;;;;;;104.82;47.17;;;3.90;99.90;;;;;;5049185;28;20025;-43
2022/01/26 00:56:19;;;;;;;94.53;43.33;;;3.90;99.90;;;;;;5049081;28;20029;-44
2022/01/26 00:58:44;;;;;;;95.13;44.40;;;3.90;99.90;;;;;;5049243;28;20075;-44
2022/01/26 01:01:10;;;;;;;105.13;46.10;;;3.80;99.90;;;;;;5049395;28;20028;-43
2022/01/26 01:03:40;;;;;;;99.10;45.97;;;3.80;99.90;;;;;;5048649;28;20021;-44
2022/01/26 01:06:13;;;;;;;97.20;45.85;;;3.80;99.90;;;;;;5049779;28;20025;-43
2022/01/26 01:08:40;;;;;;;90.38;42.05;;;3.90;99.90;;;;;;5049218;28;20075;-43
2022/01/26 01:11:07;;;;;;;84.93;39.80;;;3.90;99.90;;;;;;5047966;28;20108;-44
2022/01/26 01:13:38;;;;;;;85.53;37.85;;;3.90;99.90;;;;;;5049090;28;20037;-43
2022/01/26 01:16:06;;;;;;;88.68;38.55;;;3.90;99.90;;;;;;5049113;28;20095;-43
2022/01/26 01:31:08;;;;;;;87.22;39.80;;;3.90;99.90;;;;;;5047748;28;20029;-43
2022/01/26 01:33:38;;;;;;;83.78;40.08;;;3.90;99.90;;;;;;5048540;28;20029;-43
2022/01/26 01:36:05;;;;;;;79.47;38.25;;;3.90;99.90;;;;;;5048874;28;20036;-43
2022/01/26 01:38:32;;;;;;;76.65;36.50;;;3.90;99.90;;;;;;5047944;28;20094;-42
2022/01/26 01:40:58;;;;;;;76.30;34.78;;;3.90;99.90;;;;;;5048528;28;20021;-42
2022/01/26 01:43:23;;;;;;;76.15;35.72;;;3.90;99.90;;;;;;5048924;28;20031;-46
2022/01/26 01:45:52;;;;;;;86.75;41.40;;;3.90;99.90;;;;;;5047625;28;20377;-44
2022/01/26 01:48:21;;;;;;;92.28;43.88;;;3.90;99.90;;;;;;5048806;28;20029;-43
2022/01/26 01:50:50;;;;;;;82.50;41.50;;;3.90;99.90;;;;;;5048064;28;20037;-44
2022/01/26 01:53:17;;;;;;;82.80;39.13;;;3.80;99.90;;;;;;5047689;28;20032;-43
2022/01/26 01:55:48;;;;;;;79.93;38.72;;;3.80;99.90;;;;;;5048010;28;20025;-44
2022/01/26 01:58:15;;;;;;;75.40;35.72;;;3.90;99.90;;;;;;5048649;28;20554;-44
2022/01/26 02:00:41;;;;;;;74.75;35.30;;;3.90;99.90;;;;;;5047206;28;20035;-42
2022/01/26 02:03:07;;;;;;;68.97;33.05;;;3.90;99.90;;;;;;5048105;28;20029;-43
2022/01/26 02:05:32;;;;;;;68.50;32.92;;;3.90;99.90;;;;;;5047907;28;20025;-44
2022/01/26 02:07:59;;;;;;;65.07;31.20;;;4.00;99.90;;;;;;5047755;28;20108;-43
2022/01/26 02:10:25;;;;;;;66.50;32.38;;;4.00;99.90;;;;;;5048018;28;20745;-43
2022/01/26 02:12:57;;;;;;;68.25;33.33;;;4.00;99.90;;;;;;5047378;28;20031;-43
2022/01/26 02:15:30;;;;;;;70.35;33.78;;;4.00;99.90;;;;;;5047830;28;20362;-45
2022/01/26 02:18:14;;;;;;;70.63;34.75;;;4.00;99.90;;;;;;5048180;28;20103;-43
2022/01/26 02:21:08;;;;;;;72.97;33.92;;;4.00;99.90;;;;;;5046862;28;20028;-44
2022/01/26 02:51:26;;;;;;;62.30;28.98;;;4.00;99.90;;;;;;5046980;28;20182;-43
2022/01/26 02:56:29;;;;;;;61.67;29.23;;;4.00;99.90;;;;;;5046971;28;20025;-43
2022/01/26 02:59:35;;;;;;;62.35;29.65;;;4.00;99.90;;;;;;5046841;28;20025;-44
2022/01/26 03:01:51;;;;;;;69.57;32.10;;;4.00;99.90;;;;;;5047058;28;20029;-43
2022/01/26 03:07:10;;;;;;;66.75;30.98;;;4.00;99.90;;;;;;5047153;28;20040;-43
2022/01/26 03:09:42;;;;;;;68.55;31.75;;;4.00;99.90;;;;;;5046286;28;20051;-42
2022/01/26 03:12:10;;;;;;;64.60;30.40;;;4.00;99.90;;;;;;5047412;28;20059;-44
2022/01/26 03:14:50;;;;;;;69.40;32.17;;;4.10;99.90;;;;;;5045526;28;20539;-43
2022/01/26 03:17:34;;;;;;;64.97;30.58;;;4.10;99.90;;;;;;5036334;28;20480;-43
2022/01/26 03:20:06;;;;;;;73.20;33.53;;;4.10;99.90;;;;;;5045042;28;20029;-44
2022/01/26 03:35:56;;;;;;;69.30;32.67;;;4.10;99.90;;;;;;5040578;28;20041;-42
2022/01/26 03:38:40;;;;;;;69.63;32.58;;;4.10;99.90;;;;;;5050330;28;20104;-43
2022/01/26 03:43:38;;;;;;;67.65;31.58;;;4.10;99.90;;;;;;5050595;28;20511;-44
2022/01/26 03:46:04;;;;;;;69.40;32.88;;;4.10;99.90;;;;;;5050078;28;20021;-44
2022/01/26 03:48:29;;;;;;;66.32;31.00;;;4.10;99.90;;;;;;5050581;28;20045;-43
2022/01/26 03:50:55;;;;;;;77.78;35.42;;;4.10;99.90;;;;;;5050231;28;20049;-43
2022/01/26 03:53:20;;;;;;;78.45;37.08;;;4.10;99.90;;;;;;5050755;28;20057;-42
2022/01/26 03:55:46;;;;;;;83.50;38.60;;;4.10;99.90;;;;;;5050400;28;20049;-42
2022/01/26 03:58:11;;;;;;;77.35;35.92;;;4.10;99.90;;;;;;5050696;28;20025;-42
2022/01/26 04:00:37;;;;;;;83.93;37.83;;;4.10;99.90;;;;;;5049690;28;20040;-43
2022/01/26 04:03:03;;;;;;;78.20;37.40;;;4.10;99.90;;;;;;5050862;28;20029;-44
2022/01/26 04:05:28;;;;;;;73.65;35.10;;;4.10;99.90;;;;;;5049397;28;20020;-42
2022/01/26 04:07:59;;;;;;;77.55;36.33;;;4.10;99.90;;;;;;5050335;28;20033;-43
2022/01/26 04:10:43;;;;;;;75.05;34.15;;;4.10;99.90;;;;;;5050544;28;20094;-43
2022/01/26 04:13:08;;;;;;;71.97;32.50;;;4.10;99.90;;;;;;5049557;28;20348;-43
2022/01/26 04:15:35;;;;;;;77.20;35.42;;;4.10;99.90;;;;;;5050027;28;20040;-42
2022/01/26 04:18:05;;;;;;;69.68;31.00;;;4.10;99.90;;;;;;5050082;28;20606;-43
2022/01/26 04:20:36;;;;;;;69.95;32.22;;;4.10;99.90;;;;;;5049391;28;20025;-43
2022/01/26 04:23:14;;;;;;;70.72;33.15;;;4.10;99.90;;;;;;5050195;28;20075;-43
2022/01/26 04:25:41;;;;;;;68.40;33.28;;;4.20;99.90;;;;;;5050189;28;20037;-43
2022/01/26 04:28:12;;;;;;;69.32;32.35;;;4.20;99.90;;;;;;5049057;28;20035;-44
2022/01/26 04:30:38;;;;;;;69.53;33.35;;;4.20;99.90;;;;;;5049746;28;20104;-44
2022/01/26 04:33:05;;;;;;;77.63;34.30;;;4.20;99.90;;;;;;5050354;28;20051;-43
2022/01/26 04:35:31;;;;;;;75.82;34.72;;;4.20;99.90;;;;;;5049215;28;20400;-43
2022/01/26 04:41:23;;;;;;;74.43;35.08;;;4.30;99.90;;;;;;5045933;28;20033;-43
2022/01/26 04:43:50;;;;;;;74.00;34.85;;;4.30;99.90;;;;;;5046495;28;20048;-43
2022/01/26 04:46:15;;;;;;;74.22;34.25;;;4.30;99.90;;;;;;5048246;28;20401;-44
2022/01/26 04:48:41;;;;;;;68.55;33.42;;;4.30;99.90;;;;;;5048792;28;20025;-43
2022/01/26 04:51:06;;;;;;;73.70;33.58;;;4.30;99.90;;;;;;5049443;28;20578;-44
2022/01/26 04:53:32;;;;;;;72.13;34.70;;;4.30;99.90;;;;;;5049490;28;20068;-43
2022/01/26 04:55:58;;;;;;;69.28;32.35;;;4.30;99.90;;;;;;5048693;28;20090;-43
2022/01/26 04:58:23;;;;;;;79.88;37.50;;;4.30;99.90;;;;;;5049609;28;20392;-42
2022/01/26 05:00:49;;;;;;;76.70;35.25;;;4.30;99.90;;;;;;5049328;28;20040;-42
2022/01/26 05:03:14;;;;;;;74.03;35.78;;;4.30;99.90;;;;;;5048921;28;20025;-43
2022/01/26 05:05:40;;;;;;;75.40;36.20;;;4.30;99.90;;;;;;5049932;28;20032;-44
2022/01/26 05:08:06;;;;;;;82.25;38.55;;;4.30;99.90;;;;;;5048969;28;20510;-44
2022/01/26 05:10:31;;;;;;;76.35;36.63;;;4.30;99.90;;;;;;5048605;28;20040;-42
2022/01/26 05:12:57;;;;;;;84.50;39.60;;;4.30;99.90;;;;;;5049217;28;20035;-44
2022/01/26 05:15:24;;;;;;;88.70;42.40;;;4.30;99.90;;;;;;5049150;28;20183;-44
2022/01/26 05:17:50;;;;;;;84.60;38.92;;;4.30;99.90;;;;;;5048016;28;20058;-43
2022/01/26 05:20:16;;;;;;;87.82;40.13;;;4.30;99.90;;;;;;5049559;28;20028;-43
2022/01/26 05:22:44;;;;;;;83.43;40.10;;;4.30;99.90;;;;;;5048104;28;20029;-46
2022/01/26 05:25:11;;;;;;;83.78;38.28;;;4.30;99.90;;;;;;5048781;28;20498;-43
2022/01/26 05:27:36;;;;;;;78.15;37.25;;;4.20;99.90;;;;;;5048877;28;20021;-43
2022/01/26 05:30:04;;;;;;;84.15;40.22;;;4.20;99.90;;;;;;5048192;28;20859;-44
2022/01/26 05:32:29;;;;;;;75.47;36.63;;;4.30;99.90;;;;;;5048393;28;20014;-43
2022/01/26 05:34:55;;;;;;;81.38;38.97;;;4.20;99.90;;;;;;5048656;28;20033;-43
2022/01/26 05:37:21;;;;;;;85.90;40.30;;;4.20;99.90;;;;;;5048362;28;20623;-42
2022/01/26 05:39:46;;;;;;;85.18;41.38;;;4.30;99.90;;;;;;5048636;28;20021;-43
2022/01/26 05:42:12;;;;;;;78.15;38.58;;;4.20;99.90;;;;;;5048760;28;20025;-44
2022/01/26 05:44:37;;;;;;;93.65;42.13;;;4.20;99.90;;;;;;5047431;28;20048;-43
2022/01/26 05:47:06;;;;;;;84.35;41.35;;;4.20;99.90;;;;;;5048350;28;20035;-43
2022/01/26 05:49:32;;;;;;;85.47;40.72;;;4.20;99.90;;;;;;5048339;28;20182;-43
2022/01/26 05:51:57;;;;;;;73.13;36.67;;;4.20;99.90;;;;;;5047426;28;20087;-43
2022/01/26 05:54:23;;;;;;;81.35;38.05;;;4.20;99.90;;;;;;5047970;28;20086;-42
2022/01/26 05:56:48;;;;;;;100.70;45.35;;;4.20;99.90;;;;;;5048469;28;20067;-44
2022/01/26 05:59:20;;;;;;;94.85;44.05;;;4.20;99.90;;;;;;5047550;28;20542;-44
2022/01/26 06:01:47;;;;;;;100.72;46.72;;;4.20;99.90;;;;;;5048196;28;20024;-44
2022/01/26 06:04:12;;;;;;;95.22;44.38;;;4.20;99.90;;;;;;5048166;28;20108;-45
2022/01/26 06:06:38;;;;;;;101.00;47.50;;;4.10;99.90;;;;;;5047685;28;20120;-42
2022/01/26 06:09:03;;;;;;;101.28;46.90;;;4.10;99.90;;;;;;5047849;28;20021;-44
2022/01/26 06:11:29;;;;;;;86.78;42.10;;;4.10;99.90;;;;;;5048242;28;20013;-43
2022/01/26 06:13:55;;;;;;;96.18;46.47;;;4.10;99.90;;;;;;5047348;28;20024;-43
2022/01/26 06:16:21;;;;;;;94.30;44.38;;;4.10;99.90;;;;;;5048262;28;20017;-43
2022/01/26 06:18:47;;;;;;;98.45;47.15;;;4.10;99.90;;;;;;5047604;28;20040;-44
2022/01/26 06:21:13;;;;;;;94.68;46.55;;;4.20;99.90;;;;;;5047540;28;20024;-44
2022/01/26 06:23:38;;;;;;;104.88;49.38;;;4.10;99.90;;;;;;5047822;28;20087;-43
2022/01/26 06:26:04;;;;;;;94.13;45.78;;;4.10;99.90;;;;;;5047351;28;20104;-43
2022/01/26 06:28:29;;;;;;;90.80;41.92;;;4.10;99.90;;;;;;5047989;28;20491;-42
2022/01/26 06:30:59;;;;;;;96.40;48.03;;;4.10;99.90;;;;;;5047505;28;20091;-42
2022/01/26 06:33:26;;;;;;;99.05;46.58;;;4.10;99.90;;;;;;5046843;28;20071;-43
2022/01/26 06:35:52;;;;;;;101.35;48.15;;;4.10;99.90;;;;;;5047724;28;20108;-45
2022/01/26 06:38:18;;;;;;;111.53;51.58;;;4.10;99.90;;;;;;5047566;28;20104;-42
2022/01/26 06:40:43;;;;;;;100.45;47.10;;;4.10;99.90;;;;;;5046560;28;20059;-44
2022/01/26 06:43:13;;;;;;;109.00;52.03;;;4.10;99.90;;;;;;5047369;28;20500;-44
2022/01/26 06:45:47;;;;;;;107.75;50.00;;;4.00;99.90;;;;;;5047491;28;20071;-44
2022/01/26 06:50:39;;;;;;;100.85;47.38;;;4.00;99.90;;;;;;5046792;28;20067;-43
2022/01/26 06:53:05;;;;;;;100.68;48.10;;;4.00;99.90;;;;;;5059214;28;20490;-43
2022/01/26 06:55:30;;;;;;;101.57;48.17;;;4.10;99.90;;;;;;5054851;28;20033;-43
2022/01/26 06:57:56;;;;;;;100.47;47.67;;;4.00;99.90;;;;;;5046332;28;20021;-44
2022/01/26 07:00:22;;;;;;;113.05;53.40;;;4.10;99.90;;;;;;5044658;28;20024;-43
2022/01/26 07:02:48;;;;;;;114.82;52.85;;;4.00;99.90;;;;;;5044718;28;20527;-42
2022/01/26 07:05:13;;;;;;;123.60;54.85;;;4.00;99.90;;;;;;5046174;28;20915;-43
2022/01/26 07:07:41;;;;;;;121.05;53.15;;;4.00;99.90;;;;;;5045465;28;20086;-42
2022/01/26 07:10:08;;;;;;;124.45;54.78;;;4.00;99.90;;;;;;5045185;28;20044;-43
2022/01/26 07:12:34;;;;;;;119.57;53.03;;;4.00;99.90;;;;;;5046105;28;20151;-44
2022/01/26 07:23:09;;;;;;;119.68;54.03;;;3.90;99.90;;;;;;5043949;28;20029;-43
2022/01/26 07:25:36;;;;;;;115.70;51.25;;;3.90;99.90;;;;;;5045957;28;20037;-43
2022/01/26 07:28:04;;;;;;;104.45;47.58;;;3.90;99.90;;;;;;5046213;28;20419;-44
2022/01/26 07:30:36;;;;;;;102.97;45.65;;;4.00;99.90;;;;;;5045013;28;20029;-44
2022/01/26 07:33:05;;;;;;;106.05;48.13;;;4.00;99.90;;;;;;5046635;28;20024;-43
2022/01/26 07:35:32;;;;;;;117.75;49.95;;;4.00;99.90;;;;;;5045805;28;20052;-43
2022/01/26 07:38:01;;;;;;;119.45;50.65;;;4.00;99.90;;;;;;5044953;28;20543;-43
2022/01/26 07:40:27;;;;;;;106.00;47.88;;;4.00;99.90;;;;;;5045497;28;20060;-43
2022/01/26 07:42:53;;;;;;;116.07;52.08;;;4.00;99.90;;;;;;5046995;28;20060;-44
2022/01/26 07:45:19;;;;;;;104.55;47.15;;;4.00;99.90;;;;;;5045146;28;20439;-44
2022/01/26 07:47:46;;;;;;;108.15;47.15;;;4.00;99.90;;;;;;5047355;28;20028;-43
2022/01/26 07:50:14;;;;;;;110.97;48.00;;;4.00;99.90;;;;;;5046771;28;20096;-42
2022/01/26 07:52:41;;;;;;;109.30;48.08;;;4.00;99.90;;;;;;5048727;28;20070;-43
2022/01/26 07:55:10;;;;;;;112.63;48.33;;;4.00;99.90;;;;;;5052944;28;20460;-42
2022/01/26 07:57:35;;;;;;;107.80;46.95;;;4.10;99.90;;;;;;5045397;28;20383;-42
2022/01/26 08:00:03;;;;;;;113.15;49.40;;;4.00;99.90;;;;;;5046586;28;20025;-43
2022/01/26 08:02:28;;;;;;;106.68;47.70;;;4.00;99.90;;;;;;5044641;28;20013;-42
2022/01/26 08:04:54;;;;;;;105.40;44.78;;;4.00;99.90;;;;;;5045468;28;20072;-43
2022/01/26 08:07:19;;;;;;;112.28;50.05;;;4.00;99.90;;;;;;5046611;28;20067;-43
2022/01/26 08:09:45;;;;;;;115.93;50.50;;;4.00;99.90;;;;;;5046061;28;20091;-43
2022/01/26 08:12:12;;;;;;;108.57;48.25;;;4.00;99.90;;;;;;5045572;28;20025;-42
2022/01/26 08:14:37;;;;;;;110.22;47.13;;;4.00;99.90;;;;;;5046127;28;20035;-43
2022/01/26 08:17:05;;;;;;;109.88;46.88;;;4.00;99.90;;;;;;5046639;28;20381;-43
2022/01/26 08:19:30;;;;;;;97.63;43.78;;;4.00;99.90;;;;;;5047052;28;20036;-44
2022/01/26 08:22:00;;;;;;;100.72;46.15;;;4.10;99.90;;;;;;5049574;28;20021;-42
2022/01/26 08:24:26;;;;;;;97.53;44.83;;;4.10;99.90;;;;;;5050002;28;20029;-41
2022/01/26 08:26:51;;;;;;;101.53;44.72;;;4.10;99.90;;;;;;5049580;28;20039;-42
2022/01/26 08:29:28;;;;;;;102.00;45.35;;;4.10;99.90;;;;;;5049988;28;20037;-43
2022/01/26 08:31:54;;;;;;;102.45;44.83;;;4.10;99.90;;;;;;5049584;28;20517;-44
2022/01/26 08:34:20;;;;;;;101.63;43.90;;;4.10;99.90;;;;;;5049084;28;20065;-43
2022/01/26 08:36:45;;;;;;;92.05;39.75;;;4.10;99.90;;;;;;5050082;28;20472;-44
2022/01/26 08:39:11;;;;;;;103.90;45.45;;;4.10;99.90;;;;;;5049531;28;20021;-44
2022/01/26 08:41:36;;;;;;;102.25;45.00;;;4.10;99.90;;;;;;5049098;28;20425;-44
2022/01/26 08:44:03;;;;;;;87.95;41.78;;;4.20;99.90;;;;;;5049472;28;20037;-43
2022/01/26 08:46:29;;;;;;;92.07;43.08;;;4.20;99.90;;;;;;5049564;28;20029;-42
2022/01/26 08:48:55;;;;;;;87.32;39.53;;;4.20;99.90;;;;;;5048750;28;20040;-43
2022/01/26 08:51:20;;;;;;;95.63;43.58;;;4.20;99.90;;;;;;5049444;28;20140;-42
2022/01/26 08:53:46;;;;;;;91.03;40.28;;;4.20;99.90;;;;;;5048481;28;20119;-43
2022/01/26 08:56:12;;;;;;;88.80;40.38;;;4.20;99.90;;;;;;5049791;28;20548;-43
2022/01/26 08:58:37;;;;;;;89.03;40.03;;;4.20;99.90;;;;;;5049433;28;20037;-43
2022/01/26 09:01:03;;;;;;;94.68;40.78;;;4.30;99.90;;;;;;5048934;28;20028;-43
2022/01/26 09:03:34;;;;;;;84.68;36.83;;;4.30;99.90;;;;;;5049394;28;20021;-44
2022/01/26 09:06:00;;;;;;;81.22;37.50;;;4.30;99.90;;;;;;5048885;28;20830;-42
2022/01/26 09:08:26;;;;;;;86.10;37.97;;;4.30;99.90;;;;;;5048565;28;20032;-42
2022/01/26 09:10:56;;;;;;;87.00;39.83;;;4.40;99.90;;;;;;5048920;28;20567;-43
2022/01/26 09:13:22;;;;;;;86.88;38.95;;;4.40;99.90;;;;;;5029189;28;20112;-43
2022/01/26 09:15:47;;;;;;;89.07;40.95;;;4.40;99.90;;;;;;5043175;28;20563;-43
2022/01/26 09:18:18;;;;;;;95.13;42.95;;;4.40;99.90;;;;;;5048993;28;20086;-43
2022/01/26 09:20:44;;;;;;;87.25;42.38;;;4.40;99.90;;;;;;5048970;28;20028;-44
2022/01/26 09:23:09;;;;;;;97.45;43.58;;;4.40;99.90;;;;;;5048147;28;20335;-43
2022/01/26 09:25:35;;;;;;;102.53;47.25;;;4.40;99.90;;;;;;5048651;28;20021;-44
2022/01/26 09:28:00;;;;;;;101.72;46.17;;;4.40;99.90;;;;;;5049039;28;20060;-42
2022/01/26 09:30:26;;;;;;;102.18;46.63;;;4.40;99.90;;;;;;5047049;28;20017;-43
2022/01/26 09:32:52;;;;;;;88.20;42.97;;;4.40;99.90;;;;;;5048945;28;20730;-44
2022/01/26 09:35:17;;;;;;;92.18;45.28;;;4.50;99.90;;;;;;5048712;28;20039;-42
2022/01/26 09:37:43;;;;;;;96.88;46.13;;;4.50;99.90;;;;;;5047930;28;20017;-43
2022/01/26 09:40:09;;;;;;;95.10;44.65;;;4.50;99.90;;;;;;5046728;28;20023;-44
2022/01/26 09:42:36;;;;;;;84.85;40.60;;;4.50;99.90;;;;;;5048272;28;20028;-44
2022/01/26 09:45:04;;;;;;;94.70;46.05;;;4.50;99.90;;;;;;5047870;28;20586;-43
2022/01/26 09:47:29;;;;;;;89.43;43.97;;;4.50;99.90;;;;;;5048174;28;20013;-44
2022/01/26 09:49:55;;;;;;;88.05;45.53;;;4.50;99.90;;;;;;5049062;28;20473;-43
2022/01/26 09:52:30;;;;;;;88.15;43.88;;;4.60;99.90;;;;;;5047564;28;20044;-43
2022/01/26 09:54:58;;;;;;;92.40;44.35;;;4.50;99.90;;;;;;5048310;28;20498;-44
2022/01/26 09:57:24;;;;;;;95.22;46.83;;;4.50;99.90;;;;;;5047508;28;20385;-43
2022/01/26 09:59:50;;;;;;;89.15;42.08;;;4.60;99.90;;;;;;5048148;28;20033;-43
2022/01/26 10:02:30;;;;;;;88.88;43.90;;;4.60;99.90;;;;;;5048435;28;20361;-43
2022/01/26 10:05:05;;;;;;;91.30;44.78;;;4.60;99.90;;;;;;5046871;28;20503;-44
2022/01/26 10:15:33;;;;;;;75.57;34.88;;;4.80;99.90;;;;;;5028215;28;20147;-43
2022/01/26 10:18:09;;;;;;;70.13;35.47;;;4.80;99.90;;;;;;5042853;28;20501;-42
2022/01/26 10:20:57;;;;;;;74.15;35.83;;;4.80;99.90;;;;;;5048375;28;20036;-44
2022/01/26 10:23:28;;;;;;;81.15;39.20;;;4.90;99.90;;;;;;5047928;28;20068;-42
2022/01/26 10:26:09;;;;;;;69.78;35.90;;;4.90;99.90;;;;;;5047285;28;20024;-41
2022/01/26 10:28:43;;;;;;;70.72;36.60;;;4.90;99.90;;;;;;5047292;28;20029;-43
2022/01/26 10:31:33;;;;;;;74.50;37.67;;;4.90;99.90;;;;;;5048230;28;20025;-44
2022/01/26 10:34:10;;;;;;;74.38;37.72;;;4.90;99.90;;;;;;5046358;28;20041;-43
2022/01/26 10:36:42;;;;;;;79.70;38.47;;;5.00;99.90;;;;;;5047673;28;20051;-43
2022/01/26 10:39:11;;;;;;;72.47;37.00;;;5.00;99.90;;;;;;5047424;28;20028;-43
2022/01/26 10:41:43;;;;;;;65.10;32.40;;;5.00;99.90;;;;;;5047286;28;20029;-42
2022/01/26 10:44:09;;;;;;;64.65;32.15;;;5.00;99.90;;;;;;5047000;28;20040;-44
2022/01/26 10:46:39;;;;;;;58.83;31.23;;;5.00;99.90;;;;;;5047189;28;20029;-43
2022/01/26 10:54:34;;;;;;;63.03;34.60;;;5.00;99.90;;;;;;5041587;28;20041;-45
2022/01/26 10:57:01;;;;;;;74.53;37.92;;;5.00;99.90;;;;;;5027856;28;20079;-43
2022/01/26 10:59:26;;;;;;;68.32;36.65;;;5.00;99.90;;;;;;5042918;28;20056;-43
2022/01/26 11:01:53;;;;;;;67.45;34.58;;;4.90;99.90;;;;;;5046698;28;20067;-43
2022/01/26 11:04:19;;;;;;;62.75;33.35;;;5.00;99.90;;;;;;5046890;28;20059;-44
2022/01/26 11:06:51;;;;;;;64.63;33.60;;;5.00;99.90;;;;;;5047265;28;20029;-43
2022/01/26 11:09:20;;;;;;;69.60;34.83;;;5.00;99.90;;;;;;5046770;28;20137;-43
2022/01/26 11:11:46;;;;;;;65.60;33.83;;;5.00;99.90;;;;;;5047224;28;20036;-43
2022/01/26 11:14:21;;;;;;;65.05;33.70;;;5.00;99.90;;;;;;5046451;28;20037;-42
2022/01/26 11:17:02;;;;;;;60.80;31.00;;;5.10;99.90;;;;;;5047193;28;20550;-43
2022/01/26 11:19:38;;;;;;;65.15;33.78;;;5.10;99.90;;;;;;5046875;28;20113;-44
2022/01/26 11:22:08;;;;;;;56.72;31.65;;;5.10;99.90;;;;;;5046414;28;20087;-42
2022/01/26 11:24:46;;;;;;;62.75;33.83;;;5.00;99.90;;;;;;5046331;28;20029;-43
2022/01/26 11:27:12;;;;;;;67.85;33.88;;;5.00;99.90;;;;;;5047197;28;20658;-42
2022/01/26 11:29:43;;;;;;;57.50;30.40;;;5.10;99.90;;;;;;5045597;28;20025;-42
2022/01/26 11:32:30;;;;;;;58.75;32.35;;;5.10;99.90;;;;;;5047278;28;20032;-43
2022/01/26 11:34:56;;;;;;;60.33;30.27;;;5.10;99.90;;;;;;5045939;28;20642;-45
2022/01/26 11:37:35;;;;;;;55.88;30.60;;;5.20;99.90;;;;;;5045601;28;20029;-44
2022/01/26 11:45:34;;;;;;;57.40;29.05;;;5.20;99.90;;;;;;5046693;28;20057;-43
2022/01/26 11:48:21;;;;;;;53.10;27.83;;;5.20;99.90;;;;;;5046173;28;20029;-43
2022/01/26 11:50:58;;;;;;;57.40;29.90;;;5.20;99.90;;;;;;5045281;28;20059;-43
2022/01/26 11:53:25;;;;;;;48.80;26.98;;;5.30;99.90;;;;;;5046401;28;20708;-44
2022/01/26 11:55:59;;;;;;;53.17;28.13;;;5.40;99.90;;;;;;5050677;28;20033;-44
2022/01/26 11:58:42;;;;;;;54.17;28.95;;;5.40;99.90;;;;;;5049633;28;20091;-43
2022/01/26 12:01:21;;;;;;;54.27;28.57;;;5.50;99.90;;;;;;5050026;28;20091;-43
2022/01/26 12:04:06;;;;;;;58.63;29.15;;;5.50;99.90;;;;;;5048813;28;20275;-43
2022/01/26 12:06:36;;;;;;;49.67;26.25;;;5.50;99.90;;;;;;5050006;28;20013;-44
2022/01/26 12:09:04;;;;;;;50.67;26.90;;;5.60;99.90;;;;;;5050162;28;20040;-44
2022/01/26 12:11:29;;;;;;;49.28;27.20;;;5.60;99.90;;;;;;5049608;28;20017;-43
2022/01/26 12:14:00;;;;;;;48.80;25.77;;;5.60;99.90;;;;;;5050420;28;20487;-42
2022/01/26 12:16:40;;;;;;;47.75;26.02;;;5.70;99.90;;;;;;5049695;28;20471;-44
2022/01/26 12:33:43;;;;;;;50.60;26.10;;;5.70;99.90;;;;;;5046836;28;20051;-43
2022/01/26 12:36:14;;;;;;;47.67;25.48;;;5.70;99.90;;;;;;5049088;28;20056;-42
2022/01/26 12:38:47;;;;;;;48.95;26.17;;;5.80;99.90;;;;;;5048043;28;20032;-43
2022/01/26 12:41:32;;;;;;;49.00;27.42;;;5.90;99.90;;;;;;5049927;28;20032;-44
2022/01/26 12:44:05;;;;;;;52.30;26.77;;;5.90;99.90;;;;;;5048328;28;20060;-43
2022/01/26 12:46:34;;;;;;;46.13;25.35;;;5.90;99.90;;;;;;5048798;28;20393;-43
2022/01/26 12:49:26;;;;;;;49.45;26.95;;;5.90;99.90;;;;;;5049108;28;20029;-42
2022/01/26 12:51:53;;;;;;;54.15;28.85;;;6.00;99.90;;;;;;5049068;28;20713;-43
2022/01/26 12:54:20;;;;;;;49.58;28.13;;;6.00;99.90;;;;;;5049139;28;20036;-43
2022/01/26 12:56:45;;;;;;;51.75;28.52;;;6.00;99.90;;;;;;5049733;28;20110;-43
2022/01/26 12:59:21;;;;;;;52.08;27.98;;;6.00;99.90;;;;;;5049447;28;20009;-42
2022/01/26 13:01:52;;;;;;;55.13;29.58;;;6.00;99.90;;;;;;5048974;28;20032;-43
2022/01/26 13:04:17;;;;;;;50.03;26.50;;;6.00;99.90;;;;;;5049479;28;20083;-43
2022/01/26 13:06:51;;;;;;;50.40;29.00;;;6.10;99.90;;;;;;5048125;28;20032;-43
2022/01/26 13:09:37;;;;;;;49.75;28.20;;;6.10;99.90;;;;;;5048798;28;20021;-44
2022/01/26 13:12:03;;;;;;;55.22;30.67;;;6.10;99.90;;;;;;5049418;28;20461;-43
2022/01/26 13:14:43;;;;;;;54.90;29.75;;;6.10;99.90;;;;;;5048241;28;20120;-43
2022/01/26 13:22:48;;;;;;;57.65;28.08;;;6.10;99.90;;;;;;5048686;28;20108;-43
2022/01/26 13:49:58;;;;;;;54.58;28.85;;;6.10;99.90;;;;;;5047666;28;20518;-44
2022/01/26 14:00:09;;;;;;;52.53;27.55;;;6.00;99.90;;;;;;5048276;28;20044;-43
2022/01/26 14:02:37;;;;;;;47.95;27.02;;;6.00;99.90;;;;;;5048819;28;20032;-43
2022/01/26 14:05:03;;;;;;;46.28;26.58;;;6.00;99.90;;;;;;5047334;28;20056;-43
2022/01/26 14:07:29;;;;;;;44.95;25.75;;;6.00;99.90;;;;;;5045284;28;20033;-47
2022/01/26 14:09:54;;;;;;;45.03;24.15;;;6.00;99.90;;;;;;5048181;28;20103;-44
2022/01/26 14:12:25;;;;;;;46.58;26.33;;;6.00;99.90;;;;;;5047427;28;20534;-43
2022/01/26 14:14:54;;;;;;;39.47;22.98;;;6.00;99.90;;;;;;5047613;28;20033;-42
2022/01/26 14:17:33;;;;;;;39.17;23.67;;;6.10;99.90;;;;;;5046883;28;20411;-43
2022/01/26 14:25:14;;;;;;;50.42;28.75;;;6.00;99.90;;;;;;5047069;28;20028;-44
2022/01/26 14:27:43;;;;;;;52.83;29.17;;;6.00;99.90;;;;;;5037223;28;20027;-44
2022/01/26 14:35:50;;;;;;;44.08;25.63;;;6.00;99.90;;;;;;5048043;28;20161;-43
2022/01/26 14:54:55;;;;;;;48.35;26.70;;;6.00;99.90;;;;;;5046327;28;20095;-43
2022/01/26 15:30:16;;;;;;;47.10;27.23;;;6.00;99.90;;;;;;5045440;28;20048;-45
2022/01/26 15:40:28;;;;;;;43.33;25.20;;;6.00;99.90;;;;;;5046898;28;20055;-44
2022/01/26 15:50:57;;;;;;;45.83;26.88;;;6.00;99.90;;;;;;5046141;28;20396;-43
2022/01/26 15:57:18;;;;;;;41.35;25.13;;;6.00;99.90;;;;;;5046036;28;20613;-43
2022/01/26 15:59:20;;;;;;;42.38;25.55;;;6.00;99.90;;;;;;5046730;28;20411;-43
2022/01/26 16:07:37;;;;;;;43.80;24.85;;;6.00;99.90;;;;;;5025320;28;20041;-43
2022/01/26 16:16:32;;;;;;;42.72;24.73;;;6.00;99.90;;;;;;5045578;28;20063;-43
2022/01/26 16:21:46;;;;;;;45.30;26.85;;;6.00;99.90;;;;;;5043813;28;20095;-44
2022/01/26 16:35:12;;;;;;;47.53;26.83;;;6.00;99.90;;;;;;5045673;28;20036;-42
2022/01/26 16:38:00;;;;;;;43.35;24.90;;;5.90;99.90;;;;;;5046210;28;20099;-43
2022/01/26 17:02:36;;;;;;;49.30;29.65;;;5.90;99.90;;;;;;5048370;28;20035;-43
2022/01/26 17:24:29;;;;;;;59.72;35.33;;;5.80;99.90;;;;;;5048736;28;20090;-43
2022/01/26 17:43:16;;;;;;;61.55;35.45;;;5.80;99.90;;;;;;5043487;28;20476;-43
2022/01/26 18:14:04;;;;;;;74.40;41.90;;;5.70;99.90;;;;;;5047723;28;20551;-44
2022/01/26 18:16:20;;;;;;;73.13;40.47;;;5.60;99.90;;;;;;5047440;28;20133;-44
2022/01/26 18:32:53;;;;;;;69.43;39.97;;;5.60;99.90;;;;;;5046915;28;20043;-44
2022/01/26 18:46:24;;;;;;;66.88;36.80;;;5.60;99.90;;;;;;5045793;28;20073;-43
2022/01/26 18:51:37;;;;;;;72.88;37.88;;;5.60;99.90;;;;;;5046124;28;20184;-44
2022/01/26 18:54:04;;;;;;;63.33;36.03;;;5.50;99.90;;;;;;5046265;28;20575;-43
2022/01/26 18:56:30;;;;;;;70.60;38.72;;;5.60;99.90;;;;;;5047188;28;20029;-43
2022/01/26 18:58:56;;;;;;;67.93;37.13;;;5.50;99.90;;;;;;5046397;28;20506;-44
2022/01/26 19:01:22;;;;;;;69.30;39.22;;;5.50;99.90;;;;;;5046675;28;20032;-44
2022/01/26 19:03:47;;;;;;;65.53;37.38;;;5.50;99.90;;;;;;5047531;28;20107;-45
2022/01/26 19:06:13;;;;;;;73.82;39.58;;;5.50;99.90;;;;;;5046393;28;20029;-44